Time;durP1;ratioP1;P1;durP2;ratioP2;P2;SDS_P1;SDS_P2;PMS_P1;PMS_P2;Temp;Humidity;BMP_temperature;BMP_pressure;BME280_temperature;BME280_humidity;BME280_pressure;Samples;Min_cycle;Max_cycle;Signal;HPM_P1;HPM_P2
2021/05/13 00:01:38;;;;;;;1.80;1.70;;;;;;;15.44;61.58;99987.78;3363167;29;20509;-69
2021/05/13 00:03:18;;;;;;;3.25;1.70;;;;;;;15.44;61.77;99988.59;3349263;29;20072;-69
2021/05/13 00:04:59;;;;;;;2.15;1.95;;;;;;;15.44;61.62;99995.84;3360327;29;20045;-70
2021/05/13 00:06:40;;;;;;;1.83;1.73;;;;;;;15.38;61.76;100005.56;3362411;29;20577;-70
2021/05/13 00:08:20;;;;;;;2.85;2.05;;;;;;;15.35;61.71;99995.25;3362435;29;20489;-69
2021/05/13 00:10:01;;;;;;;2.17;1.92;;;;;;;15.35;61.78;99994.44;3358126;29;20427;-70
2021/05/13 00:11:50;;;;;;;2.25;2.05;;;;;;;15.32;61.56;100005.63;3356077;29;20037;-70
2021/05/13 00:13:33;;;;;;;1.92;1.58;;;;;;;15.29;61.70;100006.88;3362719;29;20109;-69
2021/05/13 00:15:18;;;;;;;2.15;1.83;;;;;;;15.30;61.50;100008.53;3362088;29;20061;-70
2021/05/13 00:16:58;;;;;;;2.88;1.95;;;;;;;15.27;61.34;100009.78;3361269;29;20553;-69
2021/05/13 00:18:39;;;;;;;2.15;1.95;;;;;;;15.25;61.19;100011.03;3360132;29;20045;-70
2021/05/13 00:20:22;;;;;;;3.00;2.05;;;;;;;15.19;61.07;100006.53;3359455;29;22325;-69
2021/05/13 00:22:03;;;;;;;6.43;2.78;;;;;;;15.19;61.08;100006.53;3362982;29;20045;-70
2021/05/13 00:23:44;;;;;;;2.45;2.25;;;;;;;15.18;60.98;100013.78;3360802;29;20492;-69
2021/05/13 00:25:26;;;;;;;2.33;2.10;;;;;;;15.18;60.83;100016.47;3362729;29;20413;-68
2021/05/13 00:27:08;;;;;;;2.30;2.00;;;;;;;15.16;60.79;100013.19;3358184;29;20512;-69
2021/05/13 00:28:49;;;;;;;2.95;1.88;;;;;;;15.21;60.85;100016.03;3362141;29;20045;-68
2021/05/13 00:30:30;;;;;;;4.55;3.17;;;;;;;15.22;60.76;100023.03;3363034;29;20382;-69
2021/05/13 00:32:11;;;;;;;3.10;2.55;;;;;;;15.22;60.57;100025.72;3362565;29;20127;-69
2021/05/13 00:33:51;;;;;;;3.33;2.92;;;;;;;15.18;60.62;100032.59;3362732;29;20060;-70
2021/05/13 00:35:32;;;;;;;3.35;3.03;;;;;;;15.14;60.64;100025.97;3362651;29;20100;-70
2021/05/13 00:37:13;;;;;;;3.95;2.58;;;;;;;15.13;60.58;100018.97;3358741;29;20464;-70
2021/05/13 00:38:55;;;;;;;3.25;2.92;;;;;;;15.14;60.73;100030.53;3362895;29;20490;-69
2021/05/13 00:40:36;;;;;;;3.38;2.78;;;;;;;15.14;60.71;100020.63;3362451;29;20071;-69
2021/05/13 00:42:17;;;;;;;6.00;3.30;;;;;;;15.11;60.86;100031.78;3358132;29;20045;-70
2021/05/13 00:43:58;;;;;;;3.33;2.88;;;;;;;15.06;60.95;100023.56;3362766;29;20052;-69
2021/05/13 00:45:39;;;;;;;4.30;3.90;;;;;;;15.01;61.21;100020.69;3362557;29;20113;-70
2021/05/13 00:47:22;;;;;;;4.28;3.20;;;;;;;14.96;61.30;100024.03;3358569;29;20087;-68
2021/05/13 00:49:09;;;;;;;4.25;3.85;;;;;;;14.93;61.46;100023.63;3362826;29;20044;-69
2021/05/13 00:50:49;;;;;;;3.55;3.25;;;;;;;14.89;61.61;100022.41;3356300;29;20076;-69
2021/05/13 00:52:30;;;;;;;4.45;3.40;;;;;;;14.87;61.74;100035.22;3362530;29;20036;-69
2021/05/13 00:54:12;;;;;;;6.35;4.28;;;;;;;14.81;61.78;100026.16;3348751;29;20121;-70
2021/05/13 00:55:52;;;;;;;4.15;3.53;;;;;;;14.79;61.77;100021.03;3359989;29;20453;-70
2021/05/13 00:57:33;;;;;;;6.03;4.25;;;;;;;14.79;61.81;100023.72;3348084;29;20101;-70
2021/05/13 00:59:14;;;;;;;4.15;3.75;;;;;;;14.77;61.78;100020.41;3346030;29;20045;-69
2021/05/13 01:02:35;;;;;;;5.25;4.43;;;;;;;14.73;61.68;100019.19;3362495;29;20044;-70
2021/05/13 01:04:18;;;;;;;8.45;5.30;;;;;;;14.74;61.78;100020.00;3362958;29;20076;-70
2021/05/13 01:05:59;;;;;;;5.00;4.47;;;;;;;14.73;61.89;100023.72;3363023;29;20092;-69
2021/05/13 01:07:40;;;;;;;8.38;4.55;;;;;;;14.70;61.85;100024.97;3344328;29;20529;-68
2021/05/13 01:09:22;;;;;;;14.93;5.03;;;;;;;14.67;62.05;100025.41;3359470;29;20051;-70
2021/05/13 01:11:04;;;;;;;6.82;4.65;;;;;;;14.65;62.24;100023.97;3341281;29;20041;-70
2021/05/13 01:12:45;;;;;;;5.70;4.93;;;;;;;14.64;62.14;100025.00;3359583;29;20049;-71
2021/05/13 01:14:49;;;;;;;6.18;5.50;;;;;;;14.65;62.14;100021.28;3361946;29;20309;-69
2021/05/13 01:16:45;;;;;;;5.13;4.63;;;;;;;14.66;62.34;100022.94;3361542;29;20521;-70
2021/05/13 01:18:26;;;;;;;10.10;6.22;;;;;;;14.67;62.33;100025.41;3361963;29;20072;-70
2021/05/13 01:20:07;;;;;;;5.47;4.75;;;;;;;14.65;62.34;100027.47;3361947;29;20112;-69
2021/05/13 01:21:48;;;;;;;6.65;5.80;;;;;;;14.63;62.45;100032.22;3356434;29;20398;-69
2021/05/13 01:23:29;;;;;;;7.28;4.82;;;;;;;14.63;62.55;100034.91;3360842;29;20056;-70
2021/05/13 01:25:10;;;;;;;7.63;5.82;;;;;;;14.63;62.55;100037.59;3362091;29;20052;-71
2021/05/13 01:26:51;;;;;;;7.07;6.45;;;;;;;14.62;62.65;100033.28;3361368;29;20044;-70
2021/05/13 01:28:32;;;;;;;7.32;5.68;;;;;;;14.57;62.86;100033.91;3362044;29;20523;-69
2021/05/13 01:30:15;;;;;;;9.18;5.82;;;;;;;14.53;62.97;100029.16;3347770;29;20098;-69
2021/05/13 01:31:56;;;;;;;6.90;5.70;;;;;;;14.48;62.91;100031.63;3359945;29;20077;-69
2021/05/13 01:33:37;;;;;;;7.28;6.10;;;;;;;14.44;63.00;100027.75;3346265;29;20456;-70
2021/05/13 01:35:18;;;;;;;7.75;5.47;;;;;;;14.39;63.12;100031.06;3356183;29;20041;-69
2021/05/13 01:36:59;;;;;;;5.57;5.03;;;;;;;14.34;63.30;100029.00;3348659;29;20498;-69
2021/05/13 01:38:40;;;;;;;7.45;4.90;;;;;;;14.29;63.21;100034.16;3359048;29;20069;-69
2021/05/13 01:40:21;;;;;;;8.35;6.07;;;;;;;14.27;63.15;100033.53;3361440;29;20045;-69
2021/05/13 01:42:02;;;;;;;8.23;5.90;;;;;;;14.27;63.21;100036.22;3361960;29;20136;-69
2021/05/13 01:43:43;;;;;;;8.57;5.60;;;;;;;14.27;63.20;100041.59;3362363;29;20045;-69
2021/05/13 01:45:23;;;;;;;6.22;5.45;;;;;;;14.28;63.04;100043.25;3362016;29;20061;-69
2021/05/13 01:47:04;;;;;;;9.48;5.47;;;;;;;14.29;63.00;100036.84;3361704;29;20088;-69
2021/05/13 01:48:45;;;;;;;9.02;6.57;;;;;;;14.31;63.03;100042.81;3362218;29;20052;-68
2021/05/13 01:50:27;;;;;;;8.90;6.82;;;;;;;14.26;63.07;100034.59;3360956;29;20552;-69
2021/05/13 01:52:07;;;;;;;8.85;5.38;;;;;;;14.29;63.23;100044.88;3361794;29;20076;-69
2021/05/13 01:53:48;;;;;;;8.38;5.80;;;;;;;14.30;63.12;100043.88;3362240;29;20049;-69
2021/05/13 01:55:29;;;;;;;9.57;6.32;;;;;;;14.29;62.90;100049.44;3361775;29;20056;-69
2021/05/13 01:57:10;;;;;;;7.95;7.15;;;;;;;14.26;63.00;100039.94;3352518;29;20079;-69
2021/05/13 01:58:51;;;;;;;9.30;6.88;;;;;;;14.22;63.29;100044.06;3361943;29;20077;-69
2021/05/13 02:00:35;;;;;;;7.78;6.10;;;;;;;14.19;63.18;100049.84;3361529;29;20098;-69
2021/05/13 02:02:20;;;;;;;7.93;7.13;;;;;;;14.18;63.28;100042.88;3348024;29;20041;-69
2021/05/13 02:04:17;;;;;;;9.23;6.53;;;;;;;14.20;63.08;100043.47;3361944;29;20132;-69
2021/05/13 02:05:57;;;;;;;11.23;7.90;;;;;;;14.21;63.19;100044.31;3355476;29;20041;-69
2021/05/13 02:07:38;;;;;;;9.45;8.40;;;;;;;14.24;62.99;100041.19;3361554;29;20037;-68
2021/05/13 02:09:19;;;;;;;9.38;7.10;;;;;;;14.29;62.99;100055.63;3361650;29;20075;-70
2021/05/13 02:11:00;;;;;;;10.55;8.23;;;;;;;14.31;62.95;100052.72;3361705;29;20045;-69
2021/05/13 02:12:41;;;;;;;10.05;8.25;;;;;;;14.32;62.89;100044.47;3361054;29;20052;-69
2021/05/13 02:14:22;;;;;;;10.23;8.25;;;;;;;14.34;62.71;100049.63;3356707;29;20048;-69
2021/05/13 02:16:03;;;;;;;12.55;8.65;;;;;;;14.34;62.70;100041.59;3361551;29;20066;-71
2021/05/13 02:17:44;;;;;;;11.25;8.75;;;;;;;14.37;62.78;100050.03;3355048;29;20048;-70
2021/05/13 02:19:24;;;;;;;10.35;8.70;;;;;;;14.38;62.76;100049.00;3361639;29;20093;-70
2021/05/13 02:21:05;;;;;;;13.68;8.52;;;;;;;14.40;62.66;100052.31;3361489;29;20045;-69
2021/05/13 02:22:46;;;;;;;12.25;9.07;;;;;;;14.42;62.63;100051.25;3361960;29;20412;-69
2021/05/13 02:24:27;;;;;;;10.63;8.25;;;;;;;14.44;62.50;100046.50;3357114;29;20044;-69
2021/05/13 02:26:08;;;;;;;9.23;7.82;;;;;;;14.46;62.53;100047.94;3361425;29;20080;-70
2021/05/13 02:27:48;;;;;;;9.80;8.20;;;;;;;14.51;62.41;100055.38;3361400;29;20081;-70
2021/05/13 02:29:29;;;;;;;12.65;8.88;;;;;;;14.53;62.36;100047.94;3335235;29;20073;-69
2021/05/13 02:31:10;;;;;;;10.02;8.02;;;;;;;14.55;62.37;100053.94;3355872;29;20058;-69
2021/05/13 02:33:02;;;;;;;9.57;7.82;;;;;;;14.57;62.40;100055.38;3361491;29;20045;-69
2021/05/13 02:34:43;;;;;;;10.88;7.38;;;;;;;14.59;62.11;100052.47;3357271;29;20048;-71
2021/05/13 02:36:24;;;;;;;10.15;7.47;;;;;;;14.60;62.23;100056.81;3345789;29;20098;-69
2021/05/13 02:38:05;;;;;;;10.30;8.35;;;;;;;14.59;62.25;100055.16;3358793;29;20504;-70
2021/05/13 02:39:49;;;;;;;8.15;6.88;;;;;;;14.59;62.31;100050.63;3350021;29;20092;-69
2021/05/13 02:41:29;;;;;;;7.43;6.03;;;;;;;14.61;62.11;100051.22;3346309;29;20049;-69
2021/05/13 02:43:14;;;;;;;8.93;5.72;;;;;;;14.64;61.98;100047.31;3358271;29;20052;-70
2021/05/13 02:44:55;;;;;;;7.88;6.68;;;;;;;14.68;61.97;100047.69;3363867;29;20096;-70
2021/05/13 02:46:36;;;;;;;9.52;5.57;;;;;;;14.69;61.88;100044.81;3363745;29;20037;-71
2021/05/13 02:48:17;;;;;;;8.43;5.82;;;;;;;14.73;61.95;100050.56;3364015;29;20135;-69
2021/05/13 02:49:58;;;;;;;7.40;5.35;;;;;;;14.73;61.88;100048.69;3364174;29;20052;-70
2021/05/13 02:51:46;;;;;;;9.10;5.70;;;;;;;14.75;61.67;100052.00;3361526;29;20069;-69
2021/05/13 02:53:27;;;;;;;7.35;6.20;;;;;;;14.78;61.72;100048.88;3363524;29;20056;-69
2021/05/13 02:55:09;;;;;;;6.80;6.07;;;;;;;14.78;61.83;100046.19;3363772;29;20044;-69
2021/05/13 02:56:49;;;;;;;6.85;5.80;;;;;;;14.78;61.79;100034.66;3360504;29;20080;-70
2021/05/13 02:58:30;;;;;;;8.27;6.57;;;;;;;14.79;61.89;100042.50;3362830;29;20045;-70
2021/05/13 03:01:55;;;;;;;8.57;6.80;;;;;;;14.82;61.67;100044.75;3360338;29;20037;-70
2021/05/13 03:03:36;;;;;;;8.10;6.20;;;;;;;14.85;61.60;100040.00;3363657;29;20408;-69
2021/05/13 03:05:18;;;;;;;8.02;5.90;;;;;;;14.88;61.49;100042.25;3363544;29;20105;-68
2021/05/13 03:06:59;;;;;;;9.82;6.60;;;;;;;14.89;61.82;100041.19;3364030;29;20048;-69
2021/05/13 03:08:41;;;;;;;10.10;7.28;;;;;;;14.91;61.51;100041.81;3364186;29;20064;-70
2021/05/13 03:10:25;;;;;;;7.75;6.30;;;;;;;14.90;61.41;100042.88;3361527;29;20637;-69
2021/05/13 03:12:07;;;;;;;13.50;8.88;;;;;;;14.89;61.39;100042.00;3362800;29;20489;-69
2021/05/13 03:13:52;;;;;;;9.02;6.70;;;;;;;14.89;61.30;100036.66;3363759;29;20044;-70
2021/05/13 03:15:32;;;;;;;8.45;6.25;;;;;;;14.93;61.15;100053.97;3363415;29;20065;-70
2021/05/13 03:17:13;;;;;;;9.35;5.72;;;;;;;15.01;61.28;100045.66;3363538;29;20049;-70
2021/05/13 03:18:56;;;;;;;9.52;6.75;;;;;;;15.09;61.11;100039.22;3363660;29;20049;-69
2021/05/13 03:20:43;;;;;;;10.20;6.63;;;;;;;15.14;60.86;100042.09;3361687;29;20397;-69
2021/05/13 03:22:24;;;;;;;13.95;7.95;;;;;;;15.15;60.65;100037.53;3360684;29;20049;-69
2021/05/13 03:24:17;;;;;;;10.82;7.32;;;;;;;15.16;60.67;100044.56;3363543;29;20044;-69
2021/05/13 03:26:02;;;;;;;12.93;9.13;;;;;;;15.16;60.70;100048.06;3363307;29;20076;-69
2021/05/13 03:27:45;;;;;;;12.05;8.60;;;;;;;15.18;60.32;100055.91;3359388;29;20565;-70
2021/05/13 03:29:27;;;;;;;13.80;8.75;;;;;;;15.20;60.69;100045.78;3363177;29;20404;-69
2021/05/13 03:31:08;;;;;;;14.80;9.05;;;;;;;15.23;60.47;100054.22;3359871;29;20056;-70
2021/05/13 03:32:49;;;;;;;17.58;8.90;;;;;;;15.25;60.41;100060.19;3349444;29;20136;-69
2021/05/13 03:34:30;;;;;;;16.00;9.98;;;;;;;15.29;60.38;100054.41;3360570;29;20041;-70
2021/05/13 03:36:11;;;;;;;16.73;10.43;;;;;;;15.32;60.31;100048.59;3363108;29;20460;-70
2021/05/13 03:37:52;;;;;;;19.33;10.23;;;;;;;15.34;60.15;100051.91;3359470;29;20052;-70
2021/05/13 03:39:32;;;;;;;22.48;11.85;;;;;;;15.35;60.12;100050.84;3363275;29;20068;-70
2021/05/13 03:41:13;;;;;;;20.13;10.15;;;;;;;15.38;60.22;100047.72;3363182;29;20049;-69
2021/05/13 03:42:54;;;;;;;17.35;9.70;;;;;;;15.40;59.98;100045.66;3362736;29;20420;-70
2021/05/13 03:44:35;;;;;;;11.95;7.47;;;;;;;15.48;59.73;100056.13;3363317;29;20049;-70
2021/05/13 03:46:16;;;;;;;15.70;9.15;;;;;;;15.52;59.80;100054.66;3362989;29;20414;-70
2021/05/13 03:48:02;;;;;;;16.30;8.65;;;;;;;15.55;59.92;100054.22;3362568;29;20049;-70
2021/05/13 03:49:45;;;;;;;11.30;7.53;;;;;;;15.61;59.68;100053.34;3342236;29;20197;-70
2021/05/13 03:51:25;;;;;;;;;;;;;;;15.76;59.45;100044.16;3361784;29;20044;-68
2021/05/13 03:53:07;;;;;;;11.55;7.32;;;;;;;15.74;59.37;100038.19;3362898;29;19920;-70
2021/05/13 03:54:47;;;;;;;11.07;7.28;;;;;;;15.75;59.09;100037.13;3363457;29;20053;-70
2021/05/13 03:56:28;;;;;;;9.48;6.15;;;;;;;15.77;58.98;100029.69;3362172;29;20037;-70
2021/05/13 03:58:10;;;;;;;12.15;7.78;;;;;;;15.84;58.99;100043.88;3362670;29;20104;-69
2021/05/13 03:59:54;;;;;;;;;;;;;;;15.95;58.80;100042.34;3363559;29;20048;-69
2021/05/13 04:01:46;;;;;;;11.48;7.50;;;;;;;15.90;58.85;100037.63;3362512;29;19972;-69
2021/05/13 04:03:26;;;;;;;13.15;8.32;;;;;;;15.90;58.79;100037.63;3348658;29;20048;-70
2021/05/13 04:05:09;;;;;;;11.60;7.03;;;;;;;15.87;58.88;100038.06;3360203;29;20412;-69
2021/05/13 04:06:49;;;;;;;10.63;8.27;;;;;;;15.87;58.96;100035.38;3361915;29;20044;-69
2021/05/13 04:08:30;;;;;;;13.00;9.20;;;;;;;15.86;59.02;100033.75;3369212;29;20131;-70
2021/05/13 04:10:11;;;;;;;12.18;9.10;;;;;;;15.88;59.01;100029.78;3348343;29;20780;-69
2021/05/13 04:11:53;;;;;;;12.05;8.30;;;;;;;15.90;58.72;100032.25;3361323;29;20060;-70
2021/05/13 04:13:35;;;;;;;11.88;8.15;;;;;;;15.93;58.69;100023.75;3348480;29;20046;-70
2021/05/13 04:15:16;;;;;;;15.40;7.70;;;;;;;15.98;58.98;100026.59;3359912;29;20048;-69
2021/05/13 04:16:58;;;;;;;12.82;7.97;;;;;;;16.03;58.76;100020.53;3362078;29;20448;-70
2021/05/13 04:18:39;;;;;;;11.55;8.75;;;;;;;16.05;58.79;100016.59;3362539;29;20424;-69
2021/05/13 04:20:20;;;;;;;11.35;8.48;;;;;;;16.10;58.83;100019.44;3361635;29;20033;-70
2021/05/13 04:22:02;;;;;;;49.75;32.03;;;;;;;16.17;58.69;100026.63;3357781;29;20539;-69
2021/05/13 04:23:42;;;;;;;;;;;;;;;16.29;58.56;100017.59;3346628;29;20041;-71
2021/05/13 04:25:25;;;;;;;13.68;10.35;;;;;;;16.26;58.38;100019.88;3356649;29;20006;-70
2021/05/13 04:27:06;;;;;;;12.57;10.57;;;;;;;16.26;58.43;100017.19;3352738;29;20037;-69
2021/05/13 04:28:48;;;;;;;13.35;9.25;;;;;;;16.26;58.23;100009.13;3346128;29;20052;-69
2021/05/13 04:30:29;;;;;;;11.07;8.85;;;;;;;16.28;58.35;100009.75;3354350;29;20081;-70
2021/05/13 04:32:10;;;;;;;17.10;11.60;;;;;;;16.32;58.42;100010.94;3359157;29;20044;-68
2021/05/13 04:33:51;;;;;;;14.60;10.65;;;;;;;16.36;58.23;100017.50;3361647;29;20650;-71
2021/05/13 04:35:31;;;;;;;12.05;10.77;;;;;;;16.40;58.32;100013.34;3361767;29;20043;-68
2021/05/13 04:37:12;;;;;;;14.82;10.77;;;;;;;16.46;58.03;100016.97;3360927;29;20037;-70
2021/05/13 04:38:53;;;;;;;12.85;10.88;;;;;;;16.52;57.98;100014.22;3348019;29;20178;-69
2021/05/13 04:40:34;;;;;;;13.55;9.88;;;;;;;16.62;57.90;100010.16;3358922;29;20128;-70
2021/05/13 04:42:18;;;;;;;12.57;10.27;;;;;;;16.71;57.70;100006.13;3361627;29;20248;-70
2021/05/13 04:44:05;;;;;;;12.13;9.40;;;;;;;16.81;57.58;100009.13;3361739;29;20116;-70
2021/05/13 04:45:49;;;;;;;12.93;9.30;;;;;;;16.91;57.09;100009.41;3361172;29;20064;-71
2021/05/13 04:47:34;;;;;;;11.63;8.98;;;;;;;16.96;56.58;100009.53;3361034;29;20047;-69
2021/05/13 04:49:16;;;;;;;10.82;8.75;;;;;;;16.99;56.08;100011.78;3363059;29;20045;-70
2021/05/13 04:50:59;;;;;;;17.70;9.70;;;;;;;16.99;55.99;100003.69;3361811;29;20037;-69
2021/05/13 04:52:41;;;;;;;10.35;9.20;;;;;;;17.02;55.86;100010.50;3360958;29;20040;-71
2021/05/13 04:54:23;;;;;;;10.30;8.38;;;;;;;17.03;55.58;100006.75;3347003;29;20679;-70
2021/05/13 04:56:05;;;;;;;9.90;8.98;;;;;;;17.03;55.58;100001.34;3356221;29;20052;-72
2021/05/13 04:57:45;;;;;;;;;;;;;;;17.15;55.60;100004.09;3357323;29;20045;-69
2021/05/13 04:59:27;;;;;;;9.45;8.10;;;;;;;17.10;55.44;100002.09;3358558;29;19923;-71
2021/05/13 05:01:09;;;;;;;9.93;8.52;;;;;;;17.17;55.33;100007.41;3351257;29;20045;-70
2021/05/13 05:02:50;;;;;;;12.90;7.82;;;;;;;17.25;55.41;99996.28;3353665;29;20048;-71
2021/05/13 05:04:30;;;;;;;13.50;10.10;;;;;;;17.36;55.12;99994.66;3345204;29;20064;-70
2021/05/13 05:06:11;;;;;;;13.20;8.55;;;;;;;17.44;55.12;99995.13;3357313;29;20041;-72
2021/05/13 05:07:52;;;;;;;11.82;7.40;;;;;;;17.55;54.86;100004.28;3359279;29;20162;-70
2021/05/13 09:31:35;;;;;;;2.47;1.20;;;;;;;30.16;28.60;99812.72;3632060;23;20493;-75
2021/05/13 09:33:30;;;;;;;1.85;1.20;;;;;;;29.95;29.69;99815.28;3383441;29;20055;-75
2021/05/13 09:35:21;;;;;;;2.63;1.50;;;;;;;29.74;28.95;99812.31;3382806;29;20078;-74
2021/05/13 09:37:04;;;;;;;2.95;1.60;;;;;;;29.54;29.04;99825.50;3363442;29;20348;-74
2021/05/13 09:38:45;;;;;;;4.45;1.15;;;;;;;29.32;29.26;99815.38;3378876;29;20036;-75
2021/05/13 09:40:34;;;;;;;5.28;1.40;;;;;;;29.11;29.54;99808.84;3382040;29;20102;-75
2021/05/13 09:42:19;;;;;;;1.52;1.20;;;;;;;28.86;29.54;99804.78;3371251;29;20051;-76
2021/05/13 09:44:01;;;;;;;2.00;1.05;;;;;;;28.66;30.08;99814.34;3373601;29;20055;-74
2021/05/13 09:46:00;;;;;;;3.20;1.20;;;;;;;28.46;29.87;99810.16;3373241;29;20173;-74
2021/05/13 09:47:42;;;;;;;2.38;1.30;;;;;;;28.21;30.24;99804.13;3370730;29;20044;-74
2021/05/13 09:49:24;;;;;;;3.80;1.08;;;;;;;28.14;30.69;99817.47;3372923;29;20517;-74
2021/05/13 09:51:23;;;;;;;1.63;1.10;;;;;;;28.07;30.64;99811.59;3376205;29;20189;-72
2021/05/13 09:53:04;;;;;;;4.78;1.20;;;;;;;27.81;30.41;99809.41;3376142;29;20040;-73
2021/05/13 09:55:05;;;;;;;2.07;1.27;;;;;;;27.61;30.96;99815.28;3376174;29;20048;-76
2021/05/13 09:56:50;;;;;;;3.92;1.42;;;;;;;27.35;31.08;99818.50;3361471;29;20076;-76
2021/05/13 09:58:31;;;;;;;3.78;1.30;;;;;;;27.16;31.38;99835.00;3360835;29;20041;-73
2021/05/13 10:00:35;;;;;;;2.60;1.30;;;;;;;26.98;31.56;99820.25;3373307;29;20071;-73
2021/05/13 10:02:17;;;;;;;3.30;1.20;;;;;;;26.67;31.39;99814.50;3378034;29;20131;-74
2021/05/13 10:03:58;;;;;;;2.43;1.23;;;;;;;26.46;31.74;99829.56;3364138;29;20441;-73
2021/05/13 10:05:48;;;;;;;3.33;1.20;;;;;;;26.24;31.87;99816.50;3375930;29;20048;-73
2021/05/13 10:07:30;;;;;;;2.95;1.73;;;;;;;26.16;31.89;99817.16;3376713;29;20048;-75
2021/05/13 10:09:15;;;;;;;3.17;1.50;;;;;;;26.11;31.98;99818.84;3376353;29;20537;-76
2021/05/13 10:10:57;;;;;;;3.05;1.20;;;;;;;26.08;31.77;99824.09;3362349;29;20106;-76
2021/05/13 10:12:38;;;;;;;2.17;1.40;;;;;;;26.01;32.31;99829.94;3373487;29;20076;-75
2021/05/13 10:14:19;;;;;;;1.30;1.20;;;;;;;25.96;32.12;99823.72;3362210;29;20029;-76
2021/05/13 10:16:02;;;;;;;5.07;1.30;;;;;;;25.90;32.53;99822.97;3359882;29;20037;-75
2021/05/13 10:17:44;;;;;;;5.22;1.33;;;;;;;25.88;32.71;99819.72;3374118;29;20048;-74
2021/05/13 10:19:42;;;;;;;6.18;2.63;;;;;;;25.93;32.74;99827.03;3376012;29;20081;-76
2021/05/13 10:21:25;;;;;;;4.43;2.83;;;;;;;25.74;32.96;99821.50;3361434;29;20053;-74
2021/05/13 10:23:07;;;;;;;4.88;2.72;;;;;;;25.49;32.98;99823.44;3359512;29;20049;-75
2021/05/13 10:25:17;;;;;;;3.65;2.00;;;;;;;25.23;33.55;99826.44;3373057;29;20048;-73
2021/05/13 10:27:00;;;;;;;;;;;;;;;25.09;33.78;99822.72;3362159;29;20048;-76
2021/05/13 10:28:41;;;;;;;2.53;1.65;;;;;;;24.85;34.26;99825.41;3359969;29;20402;-75
2021/05/13 10:30:23;;;;;;;;;;;;;;;24.92;34.24;99830.53;3360509;29;20176;-74
2021/05/13 10:32:18;;;;;;;2.85;1.90;;;;;;;24.86;34.68;99820.75;3373083;29;19978;-74
2021/05/13 10:33:59;;;;;;;2.20;2.00;;;;;;;24.89;34.77;99814.75;3374642;29;20056;-72
2021/05/13 10:36:00;;;;;;;4.18;1.85;;;;;;;24.96;34.70;99812.50;3376229;29;20048;-74
2021/05/13 10:37:50;;;;;;;5.03;2.05;;;;;;;24.88;34.34;99813.91;3374357;29;20520;-74
2021/05/13 10:39:32;;;;;;;2.45;2.08;;;;;;;24.93;34.29;99807.63;3361692;29;20132;-75
2021/05/13 10:41:33;;;;;;;6.05;2.05;;;;;;;25.06;34.66;99801.47;3369610;29;20063;-73
2021/05/13 10:43:15;;;;;;;3.22;2.13;;;;;;;25.08;34.60;99802.03;3373076;29;20056;-73
2021/05/13 10:44:57;;;;;;;1.73;1.45;;;;;;;25.16;34.27;99812.31;3375861;29;20182;-74
2021/05/13 10:46:39;;;;;;;3.97;1.83;;;;;;;25.14;33.92;99817.22;3375487;29;20494;-73
2021/05/13 10:48:26;;;;;;;5.32;1.88;;;;;;;25.09;34.24;99814.53;3361862;29;20465;-74
2021/05/13 10:50:08;;;;;;;2.38;1.88;;;;;;;25.06;34.54;99815.13;3361529;29;20073;-73
2021/05/13 10:51:52;;;;;;;3.00;1.98;;;;;;;24.99;34.46;99801.84;3372841;29;20100;-73
2021/05/13 10:55:35;;;;;;;3.83;1.65;;;;;;;25.02;35.16;99816.81;3376962;29;20538;-72
2021/05/13 10:57:20;;;;;;;5.30;1.70;;;;;;;24.87;35.06;99815.03;3374667;29;20068;-71
2021/05/13 10:59:10;;;;;;;2.47;1.48;;;;;;;24.75;34.56;99814.59;3375557;29;20032;-73
2021/05/13 11:00:50;;;;;;;3.95;1.95;;;;;;;24.53;34.65;99804.16;3375833;29;20048;-73
2021/05/13 11:02:45;;;;;;;2.77;1.73;;;;;;;24.36;34.86;99799.06;3361980;29;20524;-73
2021/05/13 11:04:28;;;;;;;4.93;2.05;;;;;;;24.24;35.16;99802.16;3361299;29;20117;-74
2021/05/13 11:06:42;;;;;;;3.42;2.10;;;;;;;24.17;35.37;99815.25;3373290;29;20468;-74
2021/05/13 11:08:27;;;;;;;3.10;2.00;;;;;;;23.98;35.66;99795.19;3374155;29;20044;-74
2021/05/13 11:10:09;;;;;;;5.50;2.25;;;;;;;23.88;36.03;99793.34;3376607;29;20468;-73
2021/05/13 11:12:09;;;;;;;2.13;1.92;;;;;;;23.84;36.16;99814.06;3376239;29;20397;-73
2021/05/13 11:13:51;;;;;;;2.13;1.92;;;;;;;23.65;36.64;99808.41;3375407;29;20480;-74
2021/05/13 11:15:44;;;;;;;2.78;2.03;;;;;;;23.48;36.83;99808.72;3376217;29;20526;-73
2021/05/13 11:17:49;;;;;;;2.03;1.65;;;;;;;23.44;37.18;99819.38;3373394;29;20043;-73
2021/05/13 11:19:30;;;;;;;2.70;1.40;;;;;;;23.25;37.16;99813.69;3375734;29;20111;-75
2021/05/13 11:21:11;;;;;;;6.35;1.63;;;;;;;23.14;37.55;99809.38;3375978;29;20423;-73
2021/05/13 11:22:53;;;;;;;3.43;1.80;;;;;;;23.04;37.72;99802.03;3376414;29;20048;-72
2021/05/13 11:24:40;;;;;;;6.93;1.90;;;;;;;23.00;37.94;99808.28;3376318;29;20048;-73
2021/05/13 11:26:21;;;;;;;7.20;1.80;;;;;;;22.88;38.35;99810.47;3374189;29;20044;-72
2021/05/13 11:28:15;;;;;;;3.23;1.47;;;;;;;22.86;38.64;99821.59;3376142;29;20036;-73
2021/05/13 11:29:58;;;;;;;3.42;1.77;;;;;;;22.73;38.63;99811.28;3376456;29;20044;-74
2021/05/13 11:31:39;;;;;;;7.18;2.00;;;;;;;22.75;38.77;99806.38;3372978;29;20056;-72
2021/05/13 11:33:19;;;;;;;4.17;2.00;;;;;;;22.76;38.87;99797.13;3376274;29;20068;-72
2021/05/13 11:35:00;;;;;;;4.47;1.93;;;;;;;22.68;38.92;99805.84;3375996;29;20136;-73
2021/05/13 11:36:44;;;;;;;8.75;1.45;;;;;;;22.54;38.90;99794.72;3361133;29;20085;-73
2021/05/13 11:38:25;;;;;;;3.53;2.15;;;;;;;22.46;38.91;99796.06;3373534;29;20044;-72
2021/05/13 11:40:28;;;;;;;4.67;1.37;;;;;;;22.42;38.71;99795.78;3374659;29;20064;-72
2021/05/13 11:42:09;;;;;;;2.35;1.50;;;;;;;22.32;38.85;99808.53;3374019;29;20060;-73
2021/05/13 11:43:50;;;;;;;1.67;1.10;;;;;;;22.24;38.50;99800.91;3374039;29;20040;-74
2021/05/13 11:45:32;;;;;;;3.95;2.05;;;;;;;22.07;39.23;99773.97;3373587;29;20037;-73
2021/05/13 11:47:29;;;;;;;1.52;1.33;;;;;;;22.23;39.35;99777.53;3374284;29;20045;-72
2021/05/13 11:49:10;;;;;;;3.33;1.30;;;;;;;22.14;38.91;99782.66;3373436;29;20084;-72
2021/05/13 11:50:52;;;;;;;2.47;1.30;;;;;;;22.04;38.51;99780.75;3375214;29;20107;-72
2021/05/13 11:52:33;;;;;;;1.67;1.10;;;;;;;21.98;38.78;99755.50;3371515;29;20404;-73
2021/05/13 11:54:14;;;;;;;2.65;1.02;;;;;;;22.01;38.79;99762.28;3375941;29;20056;-71
2021/05/13 11:55:55;;;;;;;1.17;1.07;;;;;;;22.04;38.97;99769.06;3375637;29;20052;-74
2021/05/13 11:57:36;;;;;;;2.40;1.23;;;;;;;22.08;38.96;99767.47;3377958;29;20036;-73
2021/05/13 11:59:18;;;;;;;1.83;1.20;;;;;;;22.07;38.49;99768.53;3375753;29;20492;-74
2021/05/13 12:01:31;;;;;;;3.15;1.45;;;;;;;22.14;39.01;99760.94;3373442;29;20139;-74
2021/05/13 12:03:14;;;;;;;1.45;1.10;;;;;;;22.06;38.34;99754.16;3375012;29;20044;-73
2021/05/13 12:05:04;;;;;;;1.85;1.23;;;;;;;22.10;38.79;99763.41;3378149;29;20055;-71
2021/05/13 12:06:54;;;;;;;1.23;1.03;;;;;;;22.06;38.46;99737.88;3374412;29;20089;-73
2021/05/13 12:08:37;;;;;;;3.50;1.05;;;;;;;22.02;38.58;99739.50;3376010;29;20387;-73
2021/05/13 12:10:30;;;;;;;3.10;1.00;;;;;;;22.04;38.45;99741.94;3375869;29;20041;-73
2021/05/13 12:12:21;;;;;;;4.32;1.17;;;;;;;22.10;38.80;99740.88;3377521;29;20100;-72
2021/05/13 12:14:06;;;;;;;3.05;1.20;;;;;;;22.12;38.49;99736.81;3372812;29;20452;-72
2021/05/13 12:16:01;;;;;;;2.85;1.13;;;;;;;22.23;38.36;99734.09;3374448;29;20104;-73
2021/05/13 12:17:41;;;;;;;2.10;1.33;;;;;;;22.24;38.48;99733.84;3374227;29;20128;-72
2021/05/13 12:19:23;;;;;;;2.10;0.90;;;;;;;22.30;38.42;99730.03;3360975;29;20052;-72
2021/05/13 12:21:04;;;;;;;3.53;1.13;;;;;;;22.39;38.39;99722.19;3372034;29;20071;-72
2021/05/13 12:22:45;;;;;;;1.40;1.00;;;;;;;22.49;38.49;99724.09;3359148;29;20413;-72
2021/05/13 12:24:30;;;;;;;2.10;0.90;;;;;;;22.57;38.29;99718.91;3370827;29;20464;-73
2021/05/13 12:26:13;;;;;;;3.75;1.17;;;;;;;22.61;37.86;99719.16;3375813;29;20044;-73
2021/05/13 12:27:54;;;;;;;4.40;1.13;;;;;;;22.65;37.93;99712.09;3360512;29;20493;-73
2021/05/13 12:29:35;;;;;;;2.10;0.90;;;;;;;22.68;38.13;99702.59;3372650;29;20136;-73
2021/05/13 12:31:33;;;;;;;1.50;1.03;;;;;;;22.74;38.56;99713.16;3364922;29;20056;-72